Homeland, Florida
Current Conditions -  °F | °C
As of 3:55 PM on Saturday 22 Nov 2014 (Local Time) from KBOW Reporting Station
Overcast Overcast  
Wind Chill: 72°   Ceiling: 1400
Heat Index: 72°   Visibility: 10mi
Dew Point: 66°   Wind: 17mph
Humidity: 83%   Direction: 80°E
Pressure: 30.14"   Gusts: 23mph
Location:  27.82°N, 81.82°W
Report Text: KBOW 222055Z 08015G20KT 10SM OVC014 22/19 A3014
Loading
Personal Weather Stations






























Interactive Weather Map New forecast layout! Learn more

10-Day Weather Forecast

Advertisements
Track Severe Weather on mobile